sensor_id;sensor_type;location;lat;lon;timestamp;P1;durP1;ratioP1;P2;durP2;ratioP2
7657;SDS011;8462;53.156;8.220;2023-11-19T00:01:45;27.13;;;17.57;;
7657;SDS011;8462;53.156;8.220;2023-11-19T00:04:12;25.63;;;17.20;;
7657;SDS011;8462;53.156;8.220;2023-11-19T00:06:41;27.63;;;17.13;;
7657;SDS011;8462;53.156;8.220;2023-11-19T00:09:09;32.83;;;18.80;;
7657;SDS011;8462;53.156;8.220;2023-11-19T00:11:37;30.30;;;18.23;;
7657;SDS011;8462;53.156;8.220;2023-11-19T00:14:04;29.67;;;19.07;;
7657;SDS011;8462;53.156;8.220;2023-11-19T00:16:33;31.13;;;19.70;;
7657;SDS011;8462;53.156;8.220;2023-11-19T00:19:00;27.67;;;18.83;;
7657;SDS011;8462;53.156;8.220;2023-11-19T00:21:29;27.17;;;18.53;;
7657;SDS011;8462;53.156;8.220;2023-11-19T00:23:57;31.53;;;18.57;;
7657;SDS011;8462;53.156;8.220;2023-11-19T00:26:24;30.53;;;18.90;;
7657;SDS011;8462;53.156;8.220;2023-11-19T00:28:51;30.63;;;18.73;;
7657;SDS011;8462;53.156;8.220;2023-11-19T00:31:18;31.43;;;19.67;;
7657;SDS011;8462;53.156;8.220;2023-11-19T00:33:45;24.53;;;17.77;;
7657;SDS011;8462;53.156;8.220;2023-11-19T00:36:12;27.83;;;18.67;;
7657;SDS011;8462;53.156;8.220;2023-11-19T00:38:39;26.73;;;17.90;;
7657;SDS011;8462;53.156;8.220;2023-11-19T00:41:08;25.73;;;17.40;;
7657;SDS011;8462;53.156;8.220;2023-11-19T00:43:35;23.33;;;16.87;;
7657;SDS011;8462;53.156;8.220;2023-11-19T00:46:03;21.63;;;15.50;;
7657;SDS011;8462;53.156;8.220;2023-11-19T00:48:33;24.90;;;16.70;;
7657;SDS011;8462;53.156;8.220;2023-11-19T00:51:00;22.50;;;15.33;;
7657;SDS011;8462;53.156;8.220;2023-11-19T00:53:28;23.03;;;16.33;;
7657;SDS011;8462;53.156;8.220;2023-11-19T00:55:55;26.83;;;17.13;;
7657;SDS011;8462;53.156;8.220;2023-11-19T00:58:23;24.07;;;16.53;;
7657;SDS011;8462;53.156;8.220;2023-11-19T01:00:50;24.33;;;17.40;;
7657;SDS011;8462;53.156;8.220;2023-11-19T01:03:17;24.87;;;17.27;;
7657;SDS011;8462;53.156;8.220;2023-11-19T01:05:44;26.17;;;16.70;;
7657;SDS011;8462;53.156;8.220;2023-11-19T01:08:12;28.37;;;17.27;;
7657;SDS011;8462;53.156;8.220;2023-11-19T01:10:40;26.63;;;18.13;;
7657;SDS011;8462;53.156;8.220;2023-11-19T01:13:06;22.73;;;15.87;;
7657;SDS011;8462;53.156;8.220;2023-11-19T01:15:36;20.90;;;14.13;;
7657;SDS011;8462;53.156;8.220;2023-11-19T01:18:03;20.90;;;15.33;;
7657;SDS011;8462;53.156;8.220;2023-11-19T01:20:31;19.07;;;13.07;;
7657;SDS011;8462;53.156;8.220;2023-11-19T01:22:59;20.60;;;13.17;;
7657;SDS011;8462;53.156;8.220;2023-11-19T01:25:27;17.40;;;12.63;;
7657;SDS011;8462;53.156;8.220;2023-11-19T01:27:54;18.40;;;12.47;;
7657;SDS011;8462;53.156;8.220;2023-11-19T01:30:24;18.47;;;13.10;;
7657;SDS011;8462;53.156;8.220;2023-11-19T01:32:53;19.77;;;13.43;;
7657;SDS011;8462;53.156;8.220;2023-11-19T01:35:20;18.90;;;13.90;;
7657;SDS011;8462;53.156;8.220;2023-11-19T01:37:48;18.40;;;13.93;;
7657;SDS011;8462;53.156;8.220;2023-11-19T01:40:19;21.47;;;14.83;;
7657;SDS011;8462;53.156;8.220;2023-11-19T01:42:47;20.60;;;15.60;;
7657;SDS011;8462;53.156;8.220;2023-11-19T01:45:22;21.73;;;15.60;;
7657;SDS011;8462;53.156;8.220;2023-11-19T01:47:56;21.73;;;15.37;;
7657;SDS011;8462;53.156;8.220;2023-11-19T01:50:25;22.07;;;15.13;;
7657;SDS011;8462;53.156;8.220;2023-11-19T01:52:52;20.87;;;14.57;;
7657;SDS011;8462;53.156;8.220;2023-11-19T01:55:22;20.83;;;14.80;;
7657;SDS011;8462;53.156;8.220;2023-11-19T01:57:52;21.03;;;13.60;;
7657;SDS011;8462;53.156;8.220;2023-11-19T02:00:21;22.00;;;14.67;;
7657;SDS011;8462;53.156;8.220;2023-11-19T02:02:48;20.40;;;14.33;;
7657;SDS011;8462;53.156;8.220;2023-11-19T02:05:18;21.10;;;14.77;;
7657;SDS011;8462;53.156;8.220;2023-11-19T02:07:48;20.83;;;14.30;;
7657;SDS011;8462;53.156;8.220;2023-11-19T02:10:16;20.77;;;14.10;;
7657;SDS011;8462;53.156;8.220;2023-11-19T02:12:44;23.90;;;14.70;;
7657;SDS011;8462;53.156;8.220;2023-11-19T02:15:12;20.83;;;14.37;;
7657;SDS011;8462;53.156;8.220;2023-11-19T02:17:39;21.13;;;15.23;;
7657;SDS011;8462;53.156;8.220;2023-11-19T02:20:06;24.30;;;15.67;;
7657;SDS011;8462;53.156;8.220;2023-11-19T02:22:36;23.53;;;14.87;;
7657;SDS011;8462;53.156;8.220;2023-11-19T02:25:04;21.00;;;14.70;;
7657;SDS011;8462;53.156;8.220;2023-11-19T02:27:46;25.83;;;15.17;;
7657;SDS011;8462;53.156;8.220;2023-11-19T02:32:51;27.93;;;15.90;;
7657;SDS011;8462;53.156;8.220;2023-11-19T02:35:18;27.97;;;16.53;;
7657;SDS011;8462;53.156;8.220;2023-11-19T02:37:46;26.40;;;17.17;;
7657;SDS011;8462;53.156;8.220;2023-11-19T02:40:13;25.30;;;15.97;;
7657;SDS011;8462;53.156;8.220;2023-11-19T02:42:40;25.33;;;16.13;;
7657;SDS011;8462;53.156;8.220;2023-11-19T02:45:09;26.23;;;17.33;;
7657;SDS011;8462;53.156;8.220;2023-11-19T02:47:39;25.03;;;16.17;;
7657;SDS011;8462;53.156;8.220;2023-11-19T02:50:09;25.27;;;16.67;;
7657;SDS011;8462;53.156;8.220;2023-11-19T02:52:39;39.77;;;25.70;;
7657;SDS011;8462;53.156;8.220;2023-11-19T02:55:07;29.00;;;16.97;;
7657;SDS011;8462;53.156;8.220;2023-11-19T02:57:38;29.30;;;17.00;;
7657;SDS011;8462;53.156;8.220;2023-11-19T03:00:13;27.00;;;16.80;;
7657;SDS011;8462;53.156;8.220;2023-11-19T03:02:40;27.63;;;16.53;;
7657;SDS011;8462;53.156;8.220;2023-11-19T03:05:11;24.00;;;15.97;;
7657;SDS011;8462;53.156;8.220;2023-11-19T03:07:40;27.67;;;16.50;;
7657;SDS011;8462;53.156;8.220;2023-11-19T03:10:09;26.57;;;15.63;;
7657;SDS011;8462;53.156;8.220;2023-11-19T03:12:38;25.00;;;16.60;;
7657;SDS011;8462;53.156;8.220;2023-11-19T03:15:06;26.93;;;16.20;;
7657;SDS011;8462;53.156;8.220;2023-11-19T03:17:36;28.30;;;16.87;;
7657;SDS011;8462;53.156;8.220;2023-11-19T03:20:06;25.67;;;15.07;;
7657;SDS011;8462;53.156;8.220;2023-11-19T03:22:36;30.20;;;16.60;;
7657;SDS011;8462;53.156;8.220;2023-11-19T03:25:03;22.73;;;14.87;;
7657;SDS011;8462;53.156;8.220;2023-11-19T03:27:33;24.27;;;15.83;;
7657;SDS011;8462;53.156;8.220;2023-11-19T03:30:01;24.80;;;15.53;;
7657;SDS011;8462;53.156;8.220;2023-11-19T03:32:30;23.33;;;14.93;;
7657;SDS011;8462;53.156;8.220;2023-11-19T03:35:01;27.83;;;15.10;;
7657;SDS011;8462;53.156;8.220;2023-11-19T03:37:29;24.90;;;14.17;;
7657;SDS011;8462;53.156;8.220;2023-11-19T03:39:57;25.20;;;14.23;;
7657;SDS011;8462;53.156;8.220;2023-11-19T03:42:25;32.73;;;15.10;;
7657;SDS011;8462;53.156;8.220;2023-11-19T03:44:52;28.33;;;14.40;;
7657;SDS011;8462;53.156;8.220;2023-11-19T03:47:20;28.00;;;14.80;;
7657;SDS011;8462;53.156;8.220;2023-11-19T03:49:48;26.30;;;14.30;;
7657;SDS011;8462;53.156;8.220;2023-11-19T03:52:16;27.50;;;14.23;;
7657;SDS011;8462;53.156;8.220;2023-11-19T03:54:43;29.67;;;13.27;;
7657;SDS011;8462;53.156;8.220;2023-11-19T03:57:11;22.73;;;13.47;;
7657;SDS011;8462;53.156;8.220;2023-11-19T03:59:38;27.37;;;14.60;;
7657;SDS011;8462;53.156;8.220;2023-11-19T04:02:05;25.97;;;12.47;;
7657;SDS011;8462;53.156;8.220;2023-11-19T04:04:32;25.77;;;13.27;;
7657;SDS011;8462;53.156;8.220;2023-11-19T04:06:59;31.87;;;13.87;;
7657;SDS011;8462;53.156;8.220;2023-11-19T04:09:29;25.23;;;12.87;;
7657;SDS011;8462;53.156;8.220;2023-11-19T04:11:58;19.93;;;11.53;;
7657;SDS011;8462;53.156;8.220;2023-11-19T04:14:25;30.63;;;12.40;;
7657;SDS011;8462;53.156;8.220;2023-11-19T04:16:52;25.03;;;12.13;;
7657;SDS011;8462;53.156;8.220;2023-11-19T04:19:21;21.37;;;10.33;;
7657;SDS011;8462;53.156;8.220;2023-11-19T04:21:49;26.07;;;10.67;;
7657;SDS011;8462;53.156;8.220;2023-11-19T04:24:17;29.17;;;11.27;;
7657;SDS011;8462;53.156;8.220;2023-11-19T04:26:45;19.83;;;10.17;;
7657;SDS011;8462;53.156;8.220;2023-11-19T04:29:12;23.60;;;10.23;;
7657;SDS011;8462;53.156;8.220;2023-11-19T04:31:42;27.63;;;9.67;;
7657;SDS011;8462;53.156;8.220;2023-11-19T04:34:09;30.13;;;11.10;;
7657;SDS011;8462;53.156;8.220;2023-11-19T04:36:36;23.30;;;10.10;;
7657;SDS011;8462;53.156;8.220;2023-11-19T04:39:04;20.93;;;8.67;;
7657;SDS011;8462;53.156;8.220;2023-11-19T04:41:34;22.70;;;8.87;;
7657;SDS011;8462;53.156;8.220;2023-11-19T04:44:03;17.30;;;9.03;;
7657;SDS011;8462;53.156;8.220;2023-11-19T04:46:30;26.57;;;8.90;;
7657;SDS011;8462;53.156;8.220;2023-11-19T04:48:56;21.57;;;9.07;;
7657;SDS011;8462;53.156;8.220;2023-11-19T04:51:23;21.37;;;8.27;;
7657;SDS011;8462;53.156;8.220;2023-11-19T04:53:50;23.50;;;8.87;;
7657;SDS011;8462;53.156;8.220;2023-11-19T04:56:18;24.47;;;9.47;;
7657;SDS011;8462;53.156;8.220;2023-11-19T04:58:48;23.90;;;8.73;;
7657;SDS011;8462;53.156;8.220;2023-11-19T05:01:16;24.57;;;8.87;;
7657;SDS011;8462;53.156;8.220;2023-11-19T05:03:43;17.30;;;7.70;;
7657;SDS011;8462;53.156;8.220;2023-11-19T05:06:10;25.03;;;7.97;;
7657;SDS011;8462;53.156;8.220;2023-11-19T05:08:37;23.10;;;7.67;;
7657;SDS011;8462;53.156;8.220;2023-11-19T05:11:04;24.23;;;8.53;;
7657;SDS011;8462;53.156;8.220;2023-11-19T05:13:32;17.50;;;7.00;;
7657;SDS011;8462;53.156;8.220;2023-11-19T05:15:59;19.77;;;6.57;;
7657;SDS011;8462;53.156;8.220;2023-11-19T05:18:27;30.90;;;9.47;;
7657;SDS011;8462;53.156;8.220;2023-11-19T05:20:54;22.57;;;7.43;;
7657;SDS011;8462;53.156;8.220;2023-11-19T05:23:21;26.33;;;7.13;;
7657;SDS011;8462;53.156;8.220;2023-11-19T05:25:47;20.47;;;6.90;;
7657;SDS011;8462;53.156;8.220;2023-11-19T05:28:14;25.77;;;6.37;;
7657;SDS011;8462;53.156;8.220;2023-11-19T05:30:41;18.20;;;6.37;;
7657;SDS011;8462;53.156;8.220;2023-11-19T05:33:09;21.10;;;6.37;;
7657;SDS011;8462;53.156;8.220;2023-11-19T05:35:37;24.97;;;6.13;;
7657;SDS011;8462;53.156;8.220;2023-11-19T05:38:04;21.90;;;5.53;;
7657;SDS011;8462;53.156;8.220;2023-11-19T05:40:31;22.43;;;6.13;;
7657;SDS011;8462;53.156;8.220;2023-11-19T05:42:58;22.60;;;5.83;;
7657;SDS011;8462;53.156;8.220;2023-11-19T05:45:25;19.13;;;6.27;;
7657;SDS011;8462;53.156;8.220;2023-11-19T05:47:53;22.57;;;6.23;;
7657;SDS011;8462;53.156;8.220;2023-11-19T05:50:20;18.73;;;5.47;;
7657;SDS011;8462;53.156;8.220;2023-11-19T05:52:48;19.50;;;5.73;;
7657;SDS011;8462;53.156;8.220;2023-11-19T05:55:16;19.23;;;6.47;;
7657;SDS011;8462;53.156;8.220;2023-11-19T05:57:43;15.00;;;5.37;;
7657;SDS011;8462;53.156;8.220;2023-11-19T06:00:10;25.50;;;6.33;;
7657;SDS011;8462;53.156;8.220;2023-11-19T06:02:40;22.50;;;6.50;;
7657;SDS011;8462;53.156;8.220;2023-11-19T06:05:07;24.23;;;6.20;;
7657;SDS011;8462;53.156;8.220;2023-11-19T06:07:35;23.47;;;6.10;;
7657;SDS011;8462;53.156;8.220;2023-11-19T06:10:05;28.50;;;6.23;;
7657;SDS011;8462;53.156;8.220;2023-11-19T06:12:35;22.37;;;6.97;;
7657;SDS011;8462;53.156;8.220;2023-11-19T06:15:04;28.57;;;7.30;;
7657;SDS011;8462;53.156;8.220;2023-11-19T06:17:31;19.07;;;5.07;;
7657;SDS011;8462;53.156;8.220;2023-11-19T06:19:58;26.60;;;6.63;;
7657;SDS011;8462;53.156;8.220;2023-11-19T06:22:25;23.40;;;6.00;;
7657;SDS011;8462;53.156;8.220;2023-11-19T06:24:52;22.33;;;5.93;;
7657;SDS011;8462;53.156;8.220;2023-11-19T06:27:22;20.70;;;5.80;;
7657;SDS011;8462;53.156;8.220;2023-11-19T06:29:49;24.63;;;6.60;;
7657;SDS011;8462;53.156;8.220;2023-11-19T06:32:17;29.10;;;6.70;;
7657;SDS011;8462;53.156;8.220;2023-11-19T06:34:44;25.13;;;6.20;;
7657;SDS011;8462;53.156;8.220;2023-11-19T06:37:11;26.77;;;7.40;;
7657;SDS011;8462;53.156;8.220;2023-11-19T06:39:38;24.63;;;6.30;;
7657;SDS011;8462;53.156;8.220;2023-11-19T06:42:05;23.20;;;6.93;;
7657;SDS011;8462;53.156;8.220;2023-11-19T06:44:35;25.47;;;6.30;;
7657;SDS011;8462;53.156;8.220;2023-11-19T06:47:02;19.77;;;6.10;;
7657;SDS011;8462;53.156;8.220;2023-11-19T06:49:29;27.63;;;6.43;;
7657;SDS011;8462;53.156;8.220;2023-11-19T06:51:56;23.17;;;6.10;;
7657;SDS011;8462;53.156;8.220;2023-11-19T06:54:23;34.60;;;7.47;;
7657;SDS011;8462;53.156;8.220;2023-11-19T06:56:49;20.43;;;7.10;;
7657;SDS011;8462;53.156;8.220;2023-11-19T06:59:16;24.83;;;6.40;;
7657;SDS011;8462;53.156;8.220;2023-11-19T07:01:45;30.63;;;7.97;;
7657;SDS011;8462;53.156;8.220;2023-11-19T07:04:12;26.50;;;6.50;;
7657;SDS011;8462;53.156;8.220;2023-11-19T07:06:39;28.27;;;7.37;;
7657;SDS011;8462;53.156;8.220;2023-11-19T07:09:06;26.70;;;7.07;;
7657;SDS011;8462;53.156;8.220;2023-11-19T07:11:35;27.33;;;7.13;;
7657;SDS011;8462;53.156;8.220;2023-11-19T07:14:03;30.63;;;6.83;;
7657;SDS011;8462;53.156;8.220;2023-11-19T07:16:31;30.40;;;7.47;;
7657;SDS011;8462;53.156;8.220;2023-11-19T07:19:00;28.07;;;6.77;;
7657;SDS011;8462;53.156;8.220;2023-11-19T07:21:27;28.23;;;7.97;;
7657;SDS011;8462;53.156;8.220;2023-11-19T07:23:54;33.03;;;8.03;;
7657;SDS011;8462;53.156;8.220;2023-11-19T07:26:23;25.23;;;7.20;;
7657;SDS011;8462;53.156;8.220;2023-11-19T07:28:50;32.27;;;7.93;;
7657;SDS011;8462;53.156;8.220;2023-11-19T07:31:17;22.53;;;6.33;;
7657;SDS011;8462;53.156;8.220;2023-11-19T07:33:45;33.63;;;8.60;;
7657;SDS011;8462;53.156;8.220;2023-11-19T07:36:14;34.20;;;7.93;;
7657;SDS011;8462;53.156;8.220;2023-11-19T07:38:41;26.03;;;6.87;;
7657;SDS011;8462;53.156;8.220;2023-11-19T07:41:09;29.47;;;7.03;;
7657;SDS011;8462;53.156;8.220;2023-11-19T07:43:38;31.27;;;7.80;;
7657;SDS011;8462;53.156;8.220;2023-11-19T07:46:05;27.50;;;7.27;;
7657;SDS011;8462;53.156;8.220;2023-11-19T07:48:38;25.37;;;6.47;;
7657;SDS011;8462;53.156;8.220;2023-11-19T07:51:05;25.30;;;6.23;;
7657;SDS011;8462;53.156;8.220;2023-11-19T07:53:35;28.00;;;6.40;;
7657;SDS011;8462;53.156;8.220;2023-11-19T07:56:03;28.60;;;7.07;;
7657;SDS011;8462;53.156;8.220;2023-11-19T07:58:31;25.60;;;6.57;;
7657;SDS011;8462;53.156;8.220;2023-11-19T08:00:58;28.07;;;6.73;;
7657;SDS011;8462;53.156;8.220;2023-11-19T08:03:25;31.83;;;7.00;;
7657;SDS011;8462;53.156;8.220;2023-11-19T08:05:51;34.37;;;6.60;;
7657;SDS011;8462;53.156;8.220;2023-11-19T08:08:21;29.93;;;6.17;;
7657;SDS011;8462;53.156;8.220;2023-11-19T08:10:49;26.60;;;7.63;;
7657;SDS011;8462;53.156;8.220;2023-11-19T08:13:16;26.80;;;6.33;;
7657;SDS011;8462;53.156;8.220;2023-11-19T08:15:43;29.30;;;7.17;;
7657;SDS011;8462;53.156;8.220;2023-11-19T08:18:13;24.97;;;7.23;;
7657;SDS011;8462;53.156;8.220;2023-11-19T08:20:40;30.87;;;7.00;;
7657;SDS011;8462;53.156;8.220;2023-11-19T08:23:09;21.63;;;6.57;;
7657;SDS011;8462;53.156;8.220;2023-11-19T08:25:38;31.10;;;7.77;;
7657;SDS011;8462;53.156;8.220;2023-11-19T08:28:06;20.07;;;6.33;;
7657;SDS011;8462;53.156;8.220;2023-11-19T08:30:33;28.73;;;6.87;;
7657;SDS011;8462;53.156;8.220;2023-11-19T08:33:00;22.57;;;5.73;;
7657;SDS011;8462;53.156;8.220;2023-11-19T08:35:28;22.27;;;7.13;;
7657;SDS011;8462;53.156;8.220;2023-11-19T08:37:55;26.87;;;6.47;;
7657;SDS011;8462;53.156;8.220;2023-11-19T08:40:22;24.40;;;6.57;;
7657;SDS011;8462;53.156;8.220;2023-11-19T08:42:51;20.67;;;7.17;;
7657;SDS011;8462;53.156;8.220;2023-11-19T08:45:19;26.37;;;6.80;;
7657;SDS011;8462;53.156;8.220;2023-11-19T08:47:46;35.53;;;7.60;;
7657;SDS011;8462;53.156;8.220;2023-11-19T08:50:13;23.00;;;6.53;;
7657;SDS011;8462;53.156;8.220;2023-11-19T08:52:40;26.27;;;6.90;;
7657;SDS011;8462;53.156;8.220;2023-11-19T08:55:07;23.00;;;6.80;;
7657;SDS011;8462;53.156;8.220;2023-11-19T08:57:35;30.00;;;7.43;;
7657;SDS011;8462;53.156;8.220;2023-11-19T09:00:02;33.90;;;7.60;;
7657;SDS011;8462;53.156;8.220;2023-11-19T09:02:33;25.00;;;6.47;;
7657;SDS011;8462;53.156;8.220;2023-11-19T09:05:02;24.77;;;5.97;;
7657;SDS011;8462;53.156;8.220;2023-11-19T09:07:29;27.90;;;6.23;;
7657;SDS011;8462;53.156;8.220;2023-11-19T09:09:56;25.90;;;6.93;;
7657;SDS011;8462;53.156;8.220;2023-11-19T09:12:22;20.63;;;6.23;;
7657;SDS011;8462;53.156;8.220;2023-11-19T09:14:49;23.80;;;7.63;;
7657;SDS011;8462;53.156;8.220;2023-11-19T09:17:16;36.57;;;8.13;;
7657;SDS011;8462;53.156;8.220;2023-11-19T09:19:45;30.50;;;8.07;;
7657;SDS011;8462;53.156;8.220;2023-11-19T09:22:11;28.60;;;6.40;;
7657;SDS011;8462;53.156;8.220;2023-11-19T09:24:38;29.17;;;7.50;;
7657;SDS011;8462;53.156;8.220;2023-11-19T09:27:05;29.63;;;6.93;;
7657;SDS011;8462;53.156;8.220;2023-11-19T09:29:32;34.13;;;6.87;;
7657;SDS011;8462;53.156;8.220;2023-11-19T09:31:59;24.07;;;6.60;;
7657;SDS011;8462;53.156;8.220;2023-11-19T09:34:26;33.23;;;7.20;;
7657;SDS011;8462;53.156;8.220;2023-11-19T09:36:55;21.03;;;6.37;;
7657;SDS011;8462;53.156;8.220;2023-11-19T09:39:22;27.37;;;7.23;;
7657;SDS011;8462;53.156;8.220;2023-11-19T09:41:50;25.87;;;6.40;;
7657;SDS011;8462;53.156;8.220;2023-11-19T09:44:17;30.20;;;7.73;;
7657;SDS011;8462;53.156;8.220;2023-11-19T09:46:45;24.27;;;7.47;;
7657;SDS011;8462;53.156;8.220;2023-11-19T09:49:14;26.90;;;6.63;;
7657;SDS011;8462;53.156;8.220;2023-11-19T09:51:44;28.03;;;6.77;;
7657;SDS011;8462;53.156;8.220;2023-11-19T09:54:13;23.80;;;6.33;;
7657;SDS011;8462;53.156;8.220;2023-11-19T09:56:40;26.00;;;7.23;;
7657;SDS011;8462;53.156;8.220;2023-11-19T09:59:08;22.43;;;7.30;;
7657;SDS011;8462;53.156;8.220;2023-11-19T10:01:36;26.90;;;6.80;;
7657;SDS011;8462;53.156;8.220;2023-11-19T10:04:04;32.50;;;7.80;;
7657;SDS011;8462;53.156;8.220;2023-11-19T10:06:32;28.73;;;6.63;;
7657;SDS011;8462;53.156;8.220;2023-11-19T10:09:00;26.77;;;6.70;;
7657;SDS011;8462;53.156;8.220;2023-11-19T10:11:33;26.03;;;6.53;;
7657;SDS011;8462;53.156;8.220;2023-11-19T10:14:00;27.93;;;7.90;;
7657;SDS011;8462;53.156;8.220;2023-11-19T10:16:28;29.73;;;7.23;;
7657;SDS011;8462;53.156;8.220;2023-11-19T10:18:58;36.47;;;7.93;;
7657;SDS011;8462;53.156;8.220;2023-11-19T10:21:25;27.60;;;6.77;;
7657;SDS011;8462;53.156;8.220;2023-11-19T10:23:54;30.00;;;7.67;;
7657;SDS011;8462;53.156;8.220;2023-11-19T10:26:25;31.67;;;7.93;;
7657;SDS011;8462;53.156;8.220;2023-11-19T10:28:56;31.20;;;8.37;;
7657;SDS011;8462;53.156;8.220;2023-11-19T10:31:24;30.87;;;6.70;;
7657;SDS011;8462;53.156;8.220;2023-11-19T10:33:51;33.77;;;7.43;;
7657;SDS011;8462;53.156;8.220;2023-11-19T10:36:20;27.47;;;7.57;;
7657;SDS011;8462;53.156;8.220;2023-11-19T10:39:02;24.57;;;6.63;;
7657;SDS011;8462;53.156;8.220;2023-11-19T10:41:29;22.77;;;6.50;;
7657;SDS011;8462;53.156;8.220;2023-11-19T10:43:58;23.10;;;6.70;;
7657;SDS011;8462;53.156;8.220;2023-11-19T10:46:36;30.13;;;7.10;;
7657;SDS011;8462;53.156;8.220;2023-11-19T10:49:04;30.40;;;7.63;;
7657;SDS011;8462;53.156;8.220;2023-11-19T10:51:32;32.83;;;7.40;;
7657;SDS011;8462;53.156;8.220;2023-11-19T10:54:01;23.07;;;6.03;;
7657;SDS011;8462;53.156;8.220;2023-11-19T10:56:31;26.47;;;6.87;;
7657;SDS011;8462;53.156;8.220;2023-11-19T10:59:03;33.67;;;8.20;;
7657;SDS011;8462;53.156;8.220;2023-11-19T11:01:32;21.63;;;6.47;;
7657;SDS011;8462;53.156;8.220;2023-11-19T11:04:07;31.00;;;6.97;;
7657;SDS011;8462;53.156;8.220;2023-11-19T11:06:43;21.33;;;5.67;;
7657;SDS011;8462;53.156;8.220;2023-11-19T11:09:11;28.00;;;7.23;;
7657;SDS011;8462;53.156;8.220;2023-11-19T11:11:41;27.77;;;7.50;;
7657;SDS011;8462;53.156;8.220;2023-11-19T11:14:14;24.63;;;6.30;;
7657;SDS011;8462;53.156;8.220;2023-11-19T11:16:45;26.80;;;7.13;;
7657;SDS011;8462;53.156;8.220;2023-11-19T11:19:15;28.57;;;7.73;;
7657;SDS011;8462;53.156;8.220;2023-11-19T11:21:44;27.50;;;7.00;;
7657;SDS011;8462;53.156;8.220;2023-11-19T11:27:16;26.43;;;6.63;;
7657;SDS011;8462;53.156;8.220;2023-11-19T11:30:10;24.83;;;6.47;;
7657;SDS011;8462;53.156;8.220;2023-11-19T11:32:50;28.07;;;6.60;;
7657;SDS011;8462;53.156;8.220;2023-11-19T11:35:30;24.47;;;6.57;;
7657;SDS011;8462;53.156;8.220;2023-11-19T11:38:07;24.87;;;7.40;;
7657;SDS011;8462;53.156;8.220;2023-11-19T11:40:34;30.07;;;6.80;;
7657;SDS011;8462;53.156;8.220;2023-11-19T11:43:02;23.83;;;6.57;;
7657;SDS011;8462;53.156;8.220;2023-11-19T11:45:37;24.50;;;7.17;;
7657;SDS011;8462;53.156;8.220;2023-11-19T11:48:09;27.13;;;6.27;;
7657;SDS011;8462;53.156;8.220;2023-11-19T11:50:51;25.87;;;6.17;;
7657;SDS011;8462;53.156;8.220;2023-11-19T11:53:20;19.93;;;6.43;;
7657;SDS011;8462;53.156;8.220;2023-11-19T11:55:54;26.33;;;7.03;;
7657;SDS011;8462;53.156;8.220;2023-11-19T11:58:26;21.17;;;6.13;;
7657;SDS011;8462;53.156;8.220;2023-11-19T12:00:58;29.27;;;7.57;;
7657;SDS011;8462;53.156;8.220;2023-11-19T12:03:28;24.43;;;7.03;;
7657;SDS011;8462;53.156;8.220;2023-11-19T12:05:56;25.80;;;5.97;;
7657;SDS011;8462;53.156;8.220;2023-11-19T12:08:25;31.37;;;6.93;;
7657;SDS011;8462;53.156;8.220;2023-11-19T12:10:53;28.73;;;6.00;;
7657;SDS011;8462;53.156;8.220;2023-11-19T12:13:23;22.80;;;6.27;;
7657;SDS011;8462;53.156;8.220;2023-11-19T12:16:11;22.57;;;5.73;;
7657;SDS011;8462;53.156;8.220;2023-11-19T12:18:39;21.37;;;5.53;;
7657;SDS011;8462;53.156;8.220;2023-11-19T12:21:07;16.07;;;4.67;;
7657;SDS011;8462;53.156;8.220;2023-11-19T12:23:35;17.10;;;5.20;;
7657;SDS011;8462;53.156;8.220;2023-11-19T12:26:20;21.30;;;6.53;;
7657;SDS011;8462;53.156;8.220;2023-11-19T12:28:57;18.97;;;4.43;;
7657;SDS011;8462;53.156;8.220;2023-11-19T12:31:25;17.73;;;4.73;;
7657;SDS011;8462;53.156;8.220;2023-11-19T12:33:52;14.10;;;4.73;;
7657;SDS011;8462;53.156;8.220;2023-11-19T12:36:20;14.40;;;4.03;;
7657;SDS011;8462;53.156;8.220;2023-11-19T12:38:47;15.27;;;4.43;;
7657;SDS011;8462;53.156;8.220;2023-11-19T12:41:14;15.83;;;4.27;;
7657;SDS011;8462;53.156;8.220;2023-11-19T12:43:45;11.73;;;4.43;;
7657;SDS011;8462;53.156;8.220;2023-11-19T12:46:18;8.40;;;2.77;;
7657;SDS011;8462;53.156;8.220;2023-11-19T12:48:47;12.30;;;3.23;;
7657;SDS011;8462;53.156;8.220;2023-11-19T12:51:15;13.60;;;3.83;;
7657;SDS011;8462;53.156;8.220;2023-11-19T12:53:48;13.20;;;4.10;;
7657;SDS011;8462;53.156;8.220;2023-11-19T12:56:19;8.90;;;2.90;;
7657;SDS011;8462;53.156;8.220;2023-11-19T12:58:46;9.43;;;3.47;;
7657;SDS011;8462;53.156;8.220;2023-11-19T13:01:15;10.40;;;3.43;;
7657;SDS011;8462;53.156;8.220;2023-11-19T13:03:44;9.37;;;2.67;;
7657;SDS011;8462;53.156;8.220;2023-11-19T13:06:13;7.43;;;3.00;;
7657;SDS011;8462;53.156;8.220;2023-11-19T13:08:41;7.47;;;2.90;;
7657;SDS011;8462;53.156;8.220;2023-11-19T13:11:09;11.10;;;3.57;;
7657;SDS011;8462;53.156;8.220;2023-11-19T13:13:55;9.90;;;2.80;;
7657;SDS011;8462;53.156;8.220;2023-11-19T13:16:23;10.03;;;2.87;;
7657;SDS011;8462;53.156;8.220;2023-11-19T13:18:50;8.23;;;2.80;;
7657;SDS011;8462;53.156;8.220;2023-11-19T13:21:19;11.20;;;3.70;;
7657;SDS011;8462;53.156;8.220;2023-11-19T13:23:46;12.40;;;2.87;;
7657;SDS011;8462;53.156;8.220;2023-11-19T13:26:12;10.00;;;3.37;;
7657;SDS011;8462;53.156;8.220;2023-11-19T13:28:39;12.13;;;3.57;;
7657;SDS011;8462;53.156;8.220;2023-11-19T13:31:06;15.87;;;4.47;;
7657;SDS011;8462;53.156;8.220;2023-11-19T13:33:33;14.40;;;3.53;;
7657;SDS011;8462;53.156;8.220;2023-11-19T13:36:01;16.30;;;4.10;;
7657;SDS011;8462;53.156;8.220;2023-11-19T13:38:32;13.43;;;3.40;;
7657;SDS011;8462;53.156;8.220;2023-11-19T13:40:59;15.97;;;4.23;;
7657;SDS011;8462;53.156;8.220;2023-11-19T13:43:26;22.03;;;5.17;;
7657;SDS011;8462;53.156;8.220;2023-11-19T13:45:53;16.53;;;4.70;;
7657;SDS011;8462;53.156;8.220;2023-11-19T13:48:21;18.20;;;5.03;;
7657;SDS011;8462;53.156;8.220;2023-11-19T13:50:48;23.17;;;5.90;;
7657;SDS011;8462;53.156;8.220;2023-11-19T13:53:15;24.47;;;5.70;;
7657;SDS011;8462;53.156;8.220;2023-11-19T13:55:43;17.77;;;5.03;;
7657;SDS011;8462;53.156;8.220;2023-11-19T13:58:10;20.93;;;6.03;;
7657;SDS011;8462;53.156;8.220;2023-11-19T14:00:37;20.43;;;5.83;;
7657;SDS011;8462;53.156;8.220;2023-11-19T14:03:05;19.60;;;5.40;;
7657;SDS011;8462;53.156;8.220;2023-11-19T14:05:32;19.20;;;5.57;;
7657;SDS011;8462;53.156;8.220;2023-11-19T14:07:59;18.83;;;5.20;;
7657;SDS011;8462;53.156;8.220;2023-11-19T14:10:26;20.20;;;5.20;;
7657;SDS011;8462;53.156;8.220;2023-11-19T14:12:55;22.93;;;5.40;;
7657;SDS011;8462;53.156;8.220;2023-11-19T14:15:22;19.83;;;5.00;;
7657;SDS011;8462;53.156;8.220;2023-11-19T14:17:49;15.67;;;4.67;;
7657;SDS011;8462;53.156;8.220;2023-11-19T14:20:16;20.43;;;4.63;;
7657;SDS011;8462;53.156;8.220;2023-11-19T14:22:43;21.80;;;5.83;;
7657;SDS011;8462;53.156;8.220;2023-11-19T14:25:13;17.93;;;4.67;;
7657;SDS011;8462;53.156;8.220;2023-11-19T14:27:40;14.20;;;4.30;;
7657;SDS011;8462;53.156;8.220;2023-11-19T14:30:10;18.73;;;5.33;;
7657;SDS011;8462;53.156;8.220;2023-11-19T14:32:39;14.13;;;5.00;;
7657;SDS011;8462;53.156;8.220;2023-11-19T14:35:07;12.37;;;3.93;;
7657;SDS011;8462;53.156;8.220;2023-11-19T14:37:34;12.23;;;3.67;;
7657;SDS011;8462;53.156;8.220;2023-11-19T14:40:02;18.90;;;4.33;;
7657;SDS011;8462;53.156;8.220;2023-11-19T14:42:30;12.73;;;3.90;;
7657;SDS011;8462;53.156;8.220;2023-11-19T14:44:58;14.47;;;4.70;;
7657;SDS011;8462;53.156;8.220;2023-11-19T14:47:27;13.23;;;3.97;;
7657;SDS011;8462;53.156;8.220;2023-11-19T14:49:54;14.97;;;4.07;;
7657;SDS011;8462;53.156;8.220;2023-11-19T14:52:21;8.97;;;3.93;;
7657;SDS011;8462;53.156;8.220;2023-11-19T14:54:48;14.73;;;4.57;;
7657;SDS011;8462;53.156;8.220;2023-11-19T14:57:16;18.77;;;4.60;;
7657;SDS011;8462;53.156;8.220;2023-11-19T14:59:43;15.83;;;4.70;;
7657;SDS011;8462;53.156;8.220;2023-11-19T15:02:11;19.67;;;4.93;;
7657;SDS011;8462;53.156;8.220;2023-11-19T15:04:39;16.53;;;4.83;;
7657;SDS011;8462;53.156;8.220;2023-11-19T15:07:06;16.83;;;5.00;;
7657;SDS011;8462;53.156;8.220;2023-11-19T15:09:33;19.97;;;5.20;;
7657;SDS011;8462;53.156;8.220;2023-11-19T15:12:01;19.90;;;4.40;;